createdAt,value
2022-09-22T00:04:39.305Z,97144.31
2022-09-22T00:09:43.328Z,97144.16
2022-09-22T00:14:46.815Z,97139.00
2022-09-22T00:19:50.748Z,97139.00
2022-09-22T00:24:54.164Z,97129.31
2022-09-22T00:29:57.364Z,97129.63
2022-09-22T00:35:00.586Z,97118.75
2022-09-22T00:40:04.264Z,97112.50
2022-09-22T00:45:12.182Z,97114.72
2022-09-22T00:50:22.141Z,97113.13
2022-09-22T00:55:34.720Z,97104.75
2022-09-22T01:00:38.779Z,97111.63
2022-09-22T01:05:44.502Z,97108.59
2022-09-22T01:10:49.250Z,97105.75
2022-09-22T01:16:16.912Z,97112.38
2022-09-22T01:21:34.784Z,97111.47
2022-09-22T01:27:01.135Z,97115.59
2022-09-22T01:32:21.626Z,97114.63
2022-09-22T01:37:40.395Z,97101.28
2022-09-22T01:42:58.491Z,97112.81
2022-09-22T01:48:34.518Z,97119.69
2022-09-22T01:53:45.048Z,97116.75
2022-09-22T01:58:55.994Z,97118.97
2022-09-22T02:04:14.657Z,97124.28
2022-09-22T02:09:21.744Z,97119.38
2022-09-22T02:14:26.459Z,97127.00
2022-09-22T02:19:35.889Z,97132.59
2022-09-22T02:24:42.449Z,97150.34
2022-09-22T02:29:51.149Z,97144.50
2022-09-22T02:34:55.985Z,97151.06
2022-09-22T02:40:10.202Z,97157.00
2022-09-22T02:45:26.825Z,97156.69
2022-09-22T02:50:31.413Z,97166.28
2022-09-22T02:55:35.282Z,97164.84
2022-09-22T03:00:38.741Z,97165.06
2022-09-22T03:05:42.133Z,97169.59
2022-09-22T03:10:45.741Z,97168.69
2022-09-22T03:15:49.151Z,97170.31
2022-09-22T03:20:52.262Z,97174.41
2022-09-22T03:25:55.607Z,97174.25
2022-09-22T03:30:59.161Z,97177.88
2022-09-22T03:36:02.803Z,97184.75
2022-09-22T03:41:06.125Z,97182.03
2022-09-22T03:46:09.597Z,97180.50
2022-09-22T03:51:13.134Z,97190.75
2022-09-22T03:56:16.682Z,97186.63
2022-09-22T04:01:20.712Z,97181.78
2022-09-22T04:06:24.695Z,97188.25
2022-09-22T04:11:28.266Z,97184.81
2022-09-22T04:16:31.875Z,97193.47
2022-09-22T04:21:35.187Z,97202.16
2022-09-22T04:26:51.590Z,97203.66
2022-09-22T04:32:00.010Z,97207.78
2022-09-22T04:37:03.626Z,97215.91
2022-09-22T04:42:07.859Z,97222.63
2022-09-22T04:47:11.378Z,97226.63
2022-09-22T04:52:15.002Z,97236.19
2022-09-22T04:57:20.579Z,97240.66
2022-09-22T05:02:24.287Z,97231.44
2022-09-22T05:07:27.703Z,97252.19
2022-09-22T05:12:31.065Z,97250.72
2022-09-22T05:17:34.546Z,97260.81
2022-09-22T05:22:42.316Z,97264.31
2022-09-22T05:27:51.295Z,97275.94
2022-09-22T05:32:55.165Z,97280.63
2022-09-22T05:37:58.512Z,97278.06
2022-09-22T05:43:01.594Z,97292.53
2022-09-22T05:48:04.907Z,97305.00
2022-09-22T05:53:10.199Z,97310.72
2022-09-22T05:58:13.615Z,97314.25
2022-09-22T06:03:17.144Z,97317.81
2022-09-22T06:08:20.566Z,97323.94
2022-09-22T06:13:23.769Z,97335.19
2022-09-22T06:18:27.148Z,97344.47
2022-09-22T06:23:30.837Z,97346.41
2022-09-22T06:28:34.700Z,97353.66
2022-09-22T06:33:38.339Z,97353.19
2022-09-22T06:38:41.608Z,97365.59
2022-09-22T06:43:45.221Z,97363.34
2022-09-22T06:48:50.683Z,97365.78
2022-09-22T06:53:54.753Z,97375.28
2022-09-22T06:59:13.112Z,97375.88
2022-09-22T07:04:16.889Z,97385.06
2022-09-22T07:09:20.361Z,97381.84
2022-09-22T07:14:24.068Z,97382.38
2022-09-22T07:19:27.357Z,97393.81
2022-09-22T07:24:31.096Z,97395.06
2022-09-22T07:29:34.702Z,97388.75
2022-09-22T07:34:39.244Z,97393.50
2022-09-22T07:39:42.844Z,97388.81
2022-09-22T07:44:46.407Z,97384.84
2022-09-22T07:49:49.687Z,97382.13
2022-09-22T07:54:53.015Z,97383.44
2022-09-22T07:59:56.379Z,97367.41
2022-09-22T08:04:59.820Z,97363.00
2022-09-22T08:10:03.397Z,97369.06
2022-09-22T08:15:07.019Z,97364.31
2022-09-22T08:20:10.635Z,97356.50
2022-09-22T08:25:14.066Z,97365.09
2022-09-22T08:30:17.689Z,97356.41
2022-09-22T08:35:21.199Z,97353.41
2022-09-22T08:40:24.865Z,97349.88
2022-09-22T08:45:33.027Z,97351.81
2022-09-22T08:50:40.120Z,97360.84
2022-09-22T08:55:47.322Z,97357.06
2022-09-22T09:01:14.112Z,97362.19
2022-09-22T09:06:57.748Z,97350.16
2022-09-22T09:12:06.931Z,97360.41
2022-09-22T09:17:15.542Z,97351.16
2022-09-22T09:22:26.148Z,97352.84
2022-09-22T09:27:38.530Z,97342.72
2022-09-22T09:32:59.125Z,97340.09
2022-09-22T09:38:07.801Z,97327.31
2022-09-22T09:43:11.306Z,97331.88
2022-09-22T09:48:33.980Z,97330.78
2022-09-22T09:53:44.621Z,97326.38
2022-09-22T09:59:02.416Z,97314.94
2022-09-22T10:04:05.884Z,97311.84
2022-09-22T10:09:09.857Z,97321.63
2022-09-22T10:14:19.611Z,97311.84
2022-09-22T10:19:28.774Z,97308.09
2022-09-22T10:24:33.582Z,97289.72
2022-09-22T10:29:36.972Z,97286.81
2022-09-22T10:34:47.587Z,97290.16
2022-09-22T10:39:58.511Z,97293.34
2022-09-22T10:45:06.915Z,97294.22
2022-09-22T10:50:52.912Z,97291.72
2022-09-22T10:56:11.157Z,97299.25
2022-09-22T11:01:33.131Z,97294.38
2022-09-22T11:06:56.755Z,97305.06
2022-09-22T11:12:19.068Z,97285.41
2022-09-22T11:17:48.473Z,97282.88
2022-09-22T11:23:18.228Z,97282.34
2022-09-22T11:28:43.060Z,97282.00
2022-09-22T11:34:10.333Z,97275.31
2022-09-22T11:39:51.864Z,97276.25
2022-09-22T11:45:06.590Z,97272.22
2022-09-22T11:50:15.962Z,97270.22
2022-09-22T11:55:57.834Z,97287.47
2022-09-22T12:01:20.965Z,97286.16
2022-09-22T12:06:30.612Z,97283.09
2022-09-22T12:11:37.928Z,97287.34
2022-09-22T12:16:44.135Z,97282.66
2022-09-22T12:21:51.937Z,97274.94
2022-09-22T12:26:58.419Z,97276.88
2022-09-22T12:32:02.405Z,97280.38
2022-09-22T12:37:36.450Z,97280.38
2022-09-22T12:42:46.130Z,97273.50
2022-09-22T12:47:53.617Z,97280.25
2022-09-22T12:53:09.861Z,97288.81
2022-09-22T12:58:19.104Z,97276.66
2022-09-22T13:03:25.479Z,97287.16
2022-09-22T13:08:32.076Z,97284.84
2022-09-22T13:13:49.092Z,97284.03
2022-09-22T13:18:59.458Z,97281.97
2022-09-22T13:24:04.242Z,97288.06
2022-09-22T13:29:16.309Z,97283.06
2022-09-22T13:34:29.290Z,97285.97
2022-09-22T13:39:35.578Z,97286.78
2022-09-22T13:44:42.098Z,97288.75
2022-09-22T13:49:49.424Z,97296.19
2022-09-22T13:54:56.510Z,97288.63
2022-09-22T14:00:01.562Z,97289.94
2022-09-22T14:05:18.260Z,97302.34
2022-09-22T14:10:22.143Z,97301.03
2022-09-22T14:15:36.689Z,97299.59
2022-09-22T14:20:42.050Z,97304.44
2022-09-22T14:25:46.160Z,97301.84
2022-09-22T14:30:51.316Z,97294.41
2022-09-22T14:36:06.222Z,97300.91
2022-09-22T14:41:25.825Z,97297.19
2022-09-22T14:46:39.070Z,97297.97
2022-09-22T14:51:47.159Z,97295.25
2022-09-22T14:56:50.502Z,97307.97
2022-09-22T15:01:56.490Z,97302.50
2022-09-22T15:07:04.486Z,97306.97
2022-09-22T15:12:40.470Z,97303.75
2022-09-22T15:17:50.022Z,97308.03
2022-09-22T15:22:54.237Z,97305.13
2022-09-22T15:27:57.501Z,97304.94
2022-09-22T15:33:00.863Z,97310.66
2022-09-22T15:38:05.094Z,97307.44
2022-09-22T15:43:13.667Z,97300.59
2022-09-22T15:48:38.927Z,97296.72
2022-09-22T15:53:42.318Z,97296.16
2022-09-22T15:58:46.190Z,97306.25
2022-09-22T16:03:49.861Z,97308.31
2022-09-22T16:08:54.403Z,97304.91
2022-09-22T16:14:00.243Z,97320.47
2022-09-22T16:19:05.077Z,97317.22
2022-09-22T16:24:10.980Z,97326.88
2022-09-22T16:29:14.483Z,97325.06
2022-09-22T16:34:18.056Z,97338.22
2022-09-22T16:39:22.867Z,97333.88
2022-09-22T16:44:27.682Z,97343.81
2022-09-22T16:49:30.888Z,97347.16
2022-09-22T16:54:35.121Z,97348.88
2022-09-22T16:59:38.692Z,97347.09
2022-09-22T17:04:42.188Z,97363.78
2022-09-22T17:09:48.511Z,97353.16
2022-09-22T17:14:51.879Z,97359.72
2022-09-22T17:19:55.123Z,97356.78
2022-09-22T17:24:58.900Z,97352.94
2022-09-22T17:30:02.837Z,97360.63
2022-09-22T17:35:07.345Z,97363.16
2022-09-22T17:40:10.791Z,97373.28
2022-09-22T17:45:14.190Z,97381.78
2022-09-22T17:50:17.421Z,97387.03
2022-09-22T17:55:22.743Z,97397.44
2022-09-22T18:00:26.312Z,97394.72
2022-09-22T18:05:29.566Z,97395.03
2022-09-22T18:10:32.829Z,97404.63
2022-09-22T18:15:36.299Z,97409.25
2022-09-22T18:20:39.798Z,97415.84
2022-09-22T18:25:43.309Z,97421.91
2022-09-22T18:30:46.411Z,97416.56
2022-09-22T18:35:49.607Z,97418.19
2022-09-22T18:40:52.838Z,97423.13
2022-09-22T18:45:56.608Z,97417.16
2022-09-22T18:50:59.981Z,97419.41
2022-09-22T18:56:17.582Z,97429.00
2022-09-22T19:01:22.345Z,97424.94
2022-09-22T19:06:25.924Z,97429.41
2022-09-22T19:11:29.390Z,97430.50
2022-09-22T19:16:32.797Z,97437.69
2022-09-22T19:21:36.689Z,97439.09
2022-09-22T19:26:41.729Z,97437.78
2022-09-22T19:31:45.957Z,97442.13
2022-09-22T19:36:49.555Z,97433.16
2022-09-22T19:41:53.655Z,97434.44
2022-09-22T19:46:57.006Z,97442.34
2022-09-22T19:52:00.250Z,97441.31
2022-09-22T19:57:03.867Z,97446.28
2022-09-22T20:02:15.461Z,97446.56
2022-09-22T20:07:18.698Z,97455.06
2022-09-22T20:12:22.555Z,97443.34
2022-09-22T20:17:26.674Z,97446.38
2022-09-22T20:22:31.309Z,97443.66
2022-09-22T20:27:37.359Z,97442.84
2022-09-22T20:32:41.182Z,97449.91
2022-09-22T20:37:44.993Z,97440.94
2022-09-22T20:42:53.735Z,97449.09
2022-09-22T20:47:57.454Z,97442.84
2022-09-22T20:53:01.464Z,97444.47
2022-09-22T20:58:05.816Z,97437.41
2022-09-22T21:03:09.440Z,97433.66
2022-09-22T21:08:12.878Z,97429.41
2022-09-22T21:13:16.280Z,97423.72
2022-09-22T21:18:20.157Z,97435.22
2022-09-22T21:23:24.320Z,97433.41
2022-09-22T21:28:28.892Z,97423.59
2022-09-22T21:33:33.958Z,97422.00
2022-09-22T21:38:38.020Z,97419.88
2022-09-22T21:43:41.890Z,97430.56
2022-09-22T21:48:45.521Z,97418.38
2022-09-22T21:53:52.419Z,97420.56
2022-09-22T21:58:56.021Z,97419.75
2022-09-22T22:04:01.305Z,97413.00
2022-09-22T22:09:20.169Z,97412.28
2022-09-22T22:14:26.433Z,97421.66
2022-09-22T22:19:30.144Z,97419.44
2022-09-22T22:24:33.690Z,97416.53
2022-09-22T22:29:38.416Z,97417.03
2022-09-22T22:34:41.871Z,97427.69
2022-09-22T22:39:45.257Z,97423.66
2022-09-22T22:44:48.668Z,97419.91
2022-09-22T22:49:52.161Z,97412.06
2022-09-22T22:54:55.516Z,97407.22
2022-09-22T22:59:58.906Z,97395.00
2022-09-22T23:05:02.357Z,97387.63
2022-09-22T23:10:06.613Z,97386.25
2022-09-22T23:15:10.476Z,97377.53
2022-09-22T23:20:14.044Z,97372.94
2022-09-22T23:25:17.577Z,97367.25
2022-09-22T23:30:20.984Z,97362.72
2022-09-22T23:35:24.384Z,97363.03
2022-09-22T23:40:30.607Z,97347.56
2022-09-22T23:45:40.843Z,97341.94
2022-09-22T23:50:48.916Z,97345.47
2022-09-22T23:55:52.844Z,97340.31
